createdAt,value
2022-11-06T00:01:22.653Z,94977.16
2022-11-06T00:03:53.188Z,94990.16
2022-11-06T00:06:38.477Z,94962.59
2022-11-06T00:09:11.969Z,94973.69
2022-11-06T00:11:40.701Z,94989.44
2022-11-06T00:14:08.068Z,94986.47
2022-11-06T00:16:37.292Z,94972.41
2022-11-06T00:19:04.898Z,94964.78
2022-11-06T00:21:32.184Z,94958.41
2022-11-06T00:24:01.876Z,94960.56
2022-11-06T00:26:30.322Z,94965.75
2022-11-06T00:28:57.673Z,94954.81
2022-11-06T00:31:29.676Z,94941.09
2022-11-06T00:33:58.547Z,94940.28
2022-11-06T00:36:27.406Z,94944.16
2022-11-06T00:38:55.784Z,94946.03
2022-11-06T00:41:24.264Z,94933.38
2022-11-06T00:43:58.342Z,94937.31
2022-11-06T00:46:26.081Z,94932.44
2022-11-06T00:48:53.900Z,94947.41
2022-11-06T00:51:35.781Z,94956.75
2022-11-06T00:54:10.497Z,94943.78
2022-11-06T00:56:37.356Z,94936.47
2022-11-06T00:59:07.678Z,94961.13
2022-11-06T01:01:41.177Z,94945.81
2022-11-06T01:04:16.677Z,94952.34
2022-11-06T01:06:47.677Z,94946.25
2022-11-06T01:09:19.101Z,94945.81
2022-11-06T01:14:39.290Z,94943.41
2022-11-06T01:17:06.061Z,94939.38
2022-11-06T01:19:32.804Z,94937.31
2022-11-06T01:21:59.544Z,94926.31
2022-11-06T01:24:29.164Z,94937.03
2022-11-06T01:29:43.956Z,94924.06
2022-11-06T01:32:10.884Z,94893.69
2022-11-06T01:34:37.680Z,94903.59
2022-11-06T01:37:04.963Z,94921.41
2022-11-06T01:39:31.957Z,94900.56
2022-11-06T01:41:58.950Z,94941.00
2022-11-06T01:44:43.960Z,94945.91
2022-11-06T01:47:29.017Z,94942.50
2022-11-06T01:50:00.774Z,94927.63
2022-11-06T01:52:29.428Z,94919.31
2022-11-06T01:55:06.813Z,94940.63
2022-11-06T01:57:33.650Z,94922.19
2022-11-06T02:00:01.168Z,94945.13
2022-11-06T02:02:28.107Z,94944.19
2022-11-06T02:04:55.022Z,94934.88
2022-11-06T02:07:21.861Z,94930.13
2022-11-06T02:09:48.710Z,94931.56
2022-11-06T02:12:52.169Z,94944.19
2022-11-06T02:15:21.550Z,94935.69
2022-11-06T02:18:07.424Z,94936.41
2022-11-06T02:20:55.348Z,94938.03
2022-11-06T02:23:55.762Z,94931.72
2022-11-06T02:27:03.617Z,94922.28
2022-11-06T02:30:06.933Z,94913.81
2022-11-06T02:32:54.522Z,94904.59
2022-11-06T02:35:35.709Z,94918.38
2022-11-06T02:38:12.602Z,94919.53
2022-11-06T02:40:55.958Z,94915.28
2022-11-06T02:43:28.381Z,94911.13
2022-11-06T02:46:01.546Z,94895.09
2022-11-06T02:48:34.419Z,94898.88
2022-11-06T02:51:02.553Z,94895.13
2022-11-06T02:53:32.156Z,94893.13
2022-11-06T02:56:07.481Z,94885.69
2022-11-06T02:58:46.262Z,94888.91
2022-11-06T03:01:48.847Z,94888.66
2022-11-06T03:04:29.071Z,94862.94
2022-11-06T03:07:35.320Z,94879.50
2022-11-06T03:10:02.715Z,94867.69
2022-11-06T03:12:36.049Z,94870.06
2022-11-06T03:15:26.893Z,94874.69
2022-11-06T03:18:17.081Z,94861.59
2022-11-06T03:20:59.369Z,94848.53
2022-11-06T03:23:36.243Z,94850.31
2022-11-06T03:26:21.639Z,94861.41
2022-11-06T03:28:55.276Z,94860.59
2022-11-06T03:31:34.329Z,94860.94
2022-11-06T03:34:18.989Z,94853.56
2022-11-06T03:36:54.216Z,94843.44
2022-11-06T03:39:32.788Z,94858.19
2022-11-06T03:42:12.544Z,94857.63
2022-11-06T03:44:44.727Z,94867.09
2022-11-06T03:47:20.353Z,94854.59
2022-11-06T03:50:00.716Z,94832.38
2022-11-06T03:52:38.444Z,94848.34
2022-11-06T03:55:15.041Z,94830.28
2022-11-06T03:57:52.519Z,94827.69
2022-11-06T04:00:20.698Z,94824.38
2022-11-06T04:03:05.092Z,94829.13
2022-11-06T04:05:42.521Z,94819.41
2022-11-06T04:08:30.419Z,94828.88
2022-11-06T04:11:21.174Z,94824.63
2022-11-06T04:13:58.784Z,94833.38
2022-11-06T04:16:37.030Z,94801.63
2022-11-06T04:19:06.953Z,94799.63
2022-11-06T04:22:01.443Z,94806.69
2022-11-06T04:25:11.837Z,94804.22
2022-11-06T04:27:53.566Z,94789.22
2022-11-06T04:30:20.345Z,94778.34
2022-11-06T04:33:18.491Z,94800.56
2022-11-06T04:36:15.323Z,94792.53
2022-11-06T04:39:12.912Z,94794.44
2022-11-06T04:41:54.293Z,94779.78
2022-11-06T04:44:30.532Z,94784.16
2022-11-06T04:47:05.726Z,94774.47
2022-11-06T04:49:35.736Z,94784.16
2022-11-06T04:52:06.819Z,94768.91
2022-11-06T04:54:33.672Z,94745.09
2022-11-06T04:57:01.315Z,94750.38
2022-11-06T04:59:29.508Z,94757.56
2022-11-06T05:01:56.315Z,94756.84
2022-11-06T05:04:23.278Z,94729.94
2022-11-06T05:06:50.094Z,94759.13
2022-11-06T05:09:17.110Z,94755.94
2022-11-06T05:11:43.987Z,94745.53
2022-11-06T05:14:10.729Z,94735.63
2022-11-06T05:16:37.596Z,94732.53
2022-11-06T05:19:04.474Z,94771.63
2022-11-06T05:21:49.649Z,94755.94
2022-11-06T05:24:16.444Z,94751.22
2022-11-06T05:26:43.527Z,94767.47
2022-11-06T05:29:12.571Z,94753.31
2022-11-06T05:31:39.663Z,94758.97
2022-11-06T05:34:06.523Z,94752.84
2022-11-06T05:36:33.650Z,94766.28
2022-11-06T05:39:00.383Z,94754.47
2022-11-06T05:41:27.189Z,94770.19
2022-11-06T05:43:53.996Z,94763.19
2022-11-06T05:46:48.338Z,94765.78
2022-11-06T05:49:08.631Z,94767.94
2022-11-06T05:51:35.968Z,94744.34
2022-11-06T05:54:02.725Z,94758.63
2022-11-06T05:56:29.545Z,94772.34
2022-11-06T05:58:56.295Z,94748.03
2022-11-06T06:01:23.076Z,94749.06
2022-11-06T06:03:49.821Z,94749.53
2022-11-06T06:06:16.564Z,94755.78
2022-11-06T06:08:43.400Z,94747.66
2022-11-06T06:11:10.159Z,94755.06
2022-11-06T06:13:40.097Z,94740.88
2022-11-06T06:16:07.329Z,94759.66
2022-11-06T06:18:34.171Z,94748.31
2022-11-06T06:21:00.894Z,94764.38
2022-11-06T06:23:27.900Z,94781.38
2022-11-06T06:25:54.919Z,94763.69
2022-11-06T06:28:21.676Z,94758.47
2022-11-06T06:30:48.566Z,94757.06
2022-11-06T06:33:15.320Z,94758.25
2022-11-06T06:35:42.096Z,94750.66
2022-11-06T06:38:08.853Z,94755.16
2022-11-06T06:40:36.214Z,94753.75
2022-11-06T06:43:03.065Z,94741.97
2022-11-06T06:45:29.823Z,94759.38
2022-11-06T06:48:05.867Z,94759.38
2022-11-06T06:50:33.401Z,94750.41
2022-11-06T06:53:00.876Z,94748.75
2022-11-06T06:55:27.666Z,94736.38
2022-11-06T06:58:02.985Z,94748.75
2022-11-06T07:00:30.104Z,94742.84
2022-11-06T07:02:56.933Z,94733.66
2022-11-06T07:05:24.276Z,94733.28
2022-11-06T07:07:51.095Z,94744.75
2022-11-06T07:10:17.977Z,94745.31
2022-11-06T07:12:44.989Z,94743.78
2022-11-06T07:15:12.030Z,94754.41
2022-11-06T07:17:38.928Z,94746.59
2022-11-06T07:20:07.244Z,94749.19
2022-11-06T07:22:37.508Z,94734.31
2022-11-06T07:25:06.163Z,94725.56
2022-11-06T07:27:33.763Z,94709.97
2022-11-06T07:30:01.123Z,94717.66
2022-11-06T07:32:28.297Z,94700.78
2022-11-06T07:34:55.154Z,94701.78
2022-11-06T07:37:22.412Z,94698.69
2022-11-06T07:39:49.168Z,94695.59
2022-11-06T07:42:16.096Z,94677.16
2022-11-06T07:44:42.849Z,94687.00
2022-11-06T07:47:09.588Z,94666.34
2022-11-06T07:49:36.366Z,94686.56
2022-11-06T07:52:05.052Z,94678.53
2022-11-06T07:54:32.067Z,94677.44
2022-11-06T07:56:58.813Z,94672.09
2022-11-06T07:59:25.572Z,94658.78
2022-11-06T08:01:52.616Z,94641.78
2022-11-06T08:04:19.424Z,94661.59
2022-11-06T08:06:46.152Z,94641.72
2022-11-06T08:09:13.027Z,94655.81
2022-11-06T08:11:39.795Z,94627.94
2022-11-06T08:14:06.657Z,94611.63
2022-11-06T08:16:33.573Z,94618.22
2022-11-06T08:19:00.334Z,94624.81
2022-11-06T08:21:27.179Z,94597.25
2022-11-06T08:23:53.986Z,94597.97
2022-11-06T08:26:20.807Z,94572.22
2022-11-06T08:28:47.542Z,94587.63
2022-11-06T08:31:14.368Z,94594.75
2022-11-06T08:33:41.656Z,94602.28
2022-11-06T08:36:09.681Z,94597.94
2022-11-06T08:38:36.993Z,94580.91
2022-11-06T08:41:09.092Z,94590.16
2022-11-06T08:43:36.773Z,94564.53
2022-11-06T08:46:05.581Z,94592.66
2022-11-06T08:48:33.399Z,94569.78
2022-11-06T08:51:00.539Z,94569.50
2022-11-06T08:53:27.476Z,94576.94
2022-11-06T08:55:54.302Z,94592.72
2022-11-06T08:58:21.112Z,94594.31
2022-11-06T09:00:48.084Z,94592.72
2022-11-06T09:03:18.216Z,94595.88
2022-11-06T09:05:45.861Z,94596.47
2022-11-06T09:08:14.060Z,94593.91
2022-11-06T09:10:42.708Z,94589.13
2022-11-06T09:13:10.406Z,94578.28
2022-11-06T09:15:38.214Z,94593.63
2022-11-06T09:18:05.153Z,94591.44
2022-11-06T09:20:31.944Z,94578.28
2022-11-06T09:23:07.403Z,94583.19
2022-11-06T09:25:34.626Z,94571.13
2022-11-06T09:28:01.489Z,94578.81
2022-11-06T09:30:31.042Z,94598.84
2022-11-06T09:33:01.250Z,94588.00
2022-11-06T09:35:31.463Z,94594.72
2022-11-06T09:38:06.346Z,94594.56
2022-11-06T09:40:58.218Z,94590.53
2022-11-06T09:46:32.418Z,94571.00
2022-11-06T09:49:08.244Z,94579.81
2022-11-06T09:51:48.738Z,94574.59
2022-11-06T09:54:36.737Z,94568.78
2022-11-06T09:57:18.075Z,94567.19
2022-11-06T09:59:46.469Z,94570.16
2022-11-06T10:02:32.115Z,94573.56
2022-11-06T10:05:13.621Z,94569.03
2022-11-06T10:07:42.762Z,94567.59
2022-11-06T10:10:17.574Z,94557.81
2022-11-06T10:13:17.989Z,94540.19
2022-11-06T10:16:18.344Z,94552.91
2022-11-06T10:19:10.324Z,94541.53
2022-11-06T10:21:50.127Z,94534.44
2022-11-06T10:24:36.205Z,94526.50
2022-11-06T10:27:12.952Z,94525.09
2022-11-06T10:30:00.983Z,94517.19
2022-11-06T10:32:47.667Z,94504.88
2022-11-06T10:35:31.726Z,94509.59
2022-11-06T10:38:07.888Z,94495.78
2022-11-06T10:40:35.433Z,94470.91
2022-11-06T10:43:36.225Z,94470.56
2022-11-06T10:46:24.165Z,94467.78
2022-11-06T10:48:57.983Z,94448.59
2022-11-06T10:51:45.844Z,94450.56
2022-11-06T10:54:41.612Z,94460.41
2022-11-06T10:57:17.174Z,94463.84
2022-11-06T10:59:44.368Z,94456.66
2022-11-06T11:02:45.379Z,94439.25
2022-11-06T11:05:16.657Z,94434.78
2022-11-06T11:07:47.010Z,94429.03
2022-11-06T11:10:32.682Z,94420.59
2022-11-06T11:13:07.916Z,94417.91
2022-11-06T11:15:48.260Z,94406.53
2022-11-06T11:18:34.468Z,94394.41
2022-11-06T11:21:16.479Z,94408.84
2022-11-06T11:23:43.801Z,94380.47
2022-11-06T11:26:30.643Z,94406.34
2022-11-06T11:29:01.127Z,94409.56
2022-11-06T11:31:34.565Z,94410.56
2022-11-06T11:34:05.617Z,94375.38
2022-11-06T11:36:57.805Z,94382.97
2022-11-06T11:39:44.935Z,94379.53
2022-11-06T11:42:32.827Z,94370.03
2022-11-06T11:45:21.660Z,94365.97
2022-11-06T11:47:51.660Z,94360.03
2022-11-06T11:50:33.825Z,94360.91
2022-11-06T11:53:12.462Z,94363.47
2022-11-06T11:55:44.704Z,94355.75
2022-11-06T11:58:28.519Z,94345.03
2022-11-06T12:01:00.264Z,94332.94
2022-11-06T12:03:35.508Z,94335.00
2022-11-06T12:06:12.584Z,94339.63
2022-11-06T12:08:49.295Z,94332.13
2022-11-06T12:11:23.349Z,94336.28
2022-11-06T12:14:24.124Z,94336.91
2022-11-06T12:16:57.508Z,94335.06
2022-11-06T12:19:28.859Z,94325.50
2022-11-06T12:22:01.536Z,94326.63
2022-11-06T12:24:40.526Z,94300.38
2022-11-06T12:27:15.330Z,94296.13
2022-11-06T12:29:51.974Z,94306.56
2022-11-06T12:32:49.476Z,94312.28
2022-11-06T12:35:28.399Z,94298.81
2022-11-06T12:38:19.787Z,94308.50
2022-11-06T12:41:06.231Z,94299.59
2022-11-06T12:43:42.072Z,94301.13
2022-11-06T12:46:41.136Z,94292.66
2022-11-06T12:49:44.348Z,94298.47
2022-11-06T12:52:48.531Z,94310.66
2022-11-06T12:55:27.003Z,94313.50
2022-11-06T12:58:12.558Z,94319.91
2022-11-06T13:01:35.247Z,94319.47
2022-11-06T13:04:21.651Z,94308.41
2022-11-06T13:07:09.741Z,94311.25
2022-11-06T13:09:46.648Z,94314.16
2022-11-06T13:12:25.807Z,94308.88
2022-11-06T13:15:22.796Z,94307.63
2022-11-06T13:18:04.571Z,94293.56
2022-11-06T13:21:09.195Z,94285.03
2022-11-06T13:23:43.428Z,94285.66
2022-11-06T13:26:21.773Z,94266.00
2022-11-06T13:28:56.225Z,94281.88
2022-11-06T13:31:41.990Z,94282.88
2022-11-06T13:34:19.225Z,94275.94
2022-11-06T13:36:46.891Z,94272.53
2022-11-06T13:39:25.304Z,94253.13
2022-11-06T13:41:53.800Z,94265.91
2022-11-06T13:44:21.673Z,94289.94
2022-11-06T13:47:06.278Z,94297.28
2022-11-06T13:49:47.028Z,94293.03
2022-11-06T13:52:45.959Z,94294.34
2022-11-06T13:55:44.202Z,94297.59
2022-11-06T13:58:55.085Z,94305.72
2022-11-06T14:01:43.628Z,94312.28
2022-11-06T14:04:34.417Z,94318.06
2022-11-06T14:07:03.022Z,94289.44
2022-11-06T14:09:34.321Z,94287.31
2022-11-06T14:12:05.639Z,94304.06
2022-11-06T14:14:34.046Z,94290.19
2022-11-06T14:17:20.988Z,94294.34
2022-11-06T14:19:51.104Z,94292.72
2022-11-06T14:22:36.896Z,94301.69
2022-11-06T14:25:28.332Z,94288.47
2022-11-06T14:27:55.014Z,94297.66
2022-11-06T14:30:50.250Z,94299.63
2022-11-06T14:33:44.445Z,94308.91
2022-11-06T14:36:29.680Z,94312.66
2022-11-06T14:38:56.542Z,94285.47
2022-11-06T14:41:54.603Z,94298.59
2022-11-06T14:44:27.104Z,94303.50
2022-11-06T14:47:00.071Z,94283.84
2022-11-06T14:49:37.264Z,94283.03
2022-11-06T14:52:11.725Z,94275.03
2022-11-06T14:54:43.291Z,94282.59
2022-11-06T14:57:16.759Z,94273.41
2022-11-06T14:59:43.887Z,94262.28
2022-11-06T15:02:20.563Z,94272.94
2022-11-06T15:04:57.961Z,94268.22
2022-11-06T15:08:08.353Z,94261.31
2022-11-06T15:10:43.997Z,94274.75
2022-11-06T15:13:17.688Z,94272.44
2022-11-06T15:15:48.870Z,94260.50
2022-11-06T15:18:22.954Z,94268.72
2022-11-06T15:21:15.214Z,94269.69
2022-11-06T15:24:07.481Z,94279.75
2022-11-06T15:26:57.375Z,94273.38
2022-11-06T15:29:32.364Z,94284.66
2022-11-06T15:32:27.235Z,94266.44
2022-11-06T15:35:17.146Z,94267.75
2022-11-06T15:37:58.846Z,94267.31
2022-11-06T15:40:35.126Z,94264.03
2022-11-06T15:43:33.980Z,94254.91
2022-11-06T15:46:12.654Z,94270.84
2022-11-06T15:48:39.491Z,94254.09
2022-11-06T15:51:27.624Z,94289.97
2022-11-06T15:53:55.720Z,94270.78
2022-11-06T15:56:34.786Z,94255.44
2022-11-06T15:59:14.747Z,94300.63
2022-11-06T16:01:47.391Z,94287.19
2022-11-06T16:04:25.178Z,94294.78
2022-11-06T16:07:05.917Z,94296.25
2022-11-06T16:09:33.088Z,94302.00
2022-11-06T16:12:00.121Z,94295.91
2022-11-06T16:14:27.001Z,94301.44
2022-11-06T16:16:57.061Z,94285.66
2022-11-06T16:19:28.508Z,94302.88
2022-11-06T16:22:09.690Z,94304.53
2022-11-06T16:25:05.056Z,94296.63
2022-11-06T16:27:37.295Z,94286.19
2022-11-06T16:30:06.611Z,94279.34
2022-11-06T16:32:40.022Z,94276.34
2022-11-06T16:35:36.172Z,94289.75
2022-11-06T16:41:06.526Z,94287.59
2022-11-06T16:43:33.829Z,94288.13
2022-11-06T16:46:08.028Z,94298.25
2022-11-06T16:48:45.174Z,94286.19
2022-11-06T16:51:29.952Z,94304.53
2022-11-06T16:54:01.959Z,94327.06
2022-11-06T16:56:34.641Z,94320.81
2022-11-06T16:59:09.350Z,94304.88
2022-11-06T17:01:43.145Z,94310.75
2022-11-06T17:04:22.233Z,94312.94
2022-11-06T17:06:50.815Z,94310.16
2022-11-06T17:09:23.232Z,94316.13
2022-11-06T17:11:54.620Z,94295.91
2022-11-06T17:14:22.331Z,94323.38
2022-11-06T17:16:58.437Z,94320.91
2022-11-06T17:19:27.244Z,94328.00
2022-11-06T17:21:55.446Z,94330.63
2022-11-06T17:24:38.172Z,94330.25
2022-11-06T17:27:06.192Z,94323.00
2022-11-06T17:29:35.888Z,94340.41
2022-11-06T17:32:03.031Z,94331.84
2022-11-06T17:34:29.808Z,94343.16
2022-11-06T17:36:56.649Z,94339.88
2022-11-06T17:39:23.551Z,94319.34
2022-11-06T17:41:50.326Z,94298.56
2022-11-06T17:44:17.510Z,94324.81
2022-11-06T17:46:46.924Z,94331.22
2022-11-06T17:49:18.085Z,94291.16
2022-11-06T17:52:01.288Z,94315.69
2022-11-06T17:54:33.701Z,94313.16
2022-11-06T17:57:02.870Z,94325.94
2022-11-06T17:59:30.764Z,94344.44
2022-11-06T18:01:57.930Z,94296.72
2022-11-06T18:04:30.776Z,94332.75
2022-11-06T18:06:57.693Z,94342.88
2022-11-06T18:09:24.956Z,94344.25
2022-11-06T18:11:54.405Z,94371.56
2022-11-06T18:14:22.914Z,94381.34
2022-11-06T18:16:50.148Z,94402.16
2022-11-06T18:19:21.099Z,94386.88
2022-11-06T18:21:48.563Z,94395.44
2022-11-06T18:24:15.508Z,94392.03
2022-11-06T18:26:45.115Z,94394.84
2022-11-06T18:29:13.529Z,94381.25
2022-11-06T18:31:40.536Z,94371.88
2022-11-06T18:34:12.958Z,94376.94
2022-11-06T18:36:43.680Z,94359.69
2022-11-06T18:39:10.443Z,94367.47
2022-11-06T18:41:37.329Z,94394.63
2022-11-06T18:44:04.323Z,94380.72
2022-11-06T18:46:31.162Z,94394.19
2022-11-06T18:48:58.710Z,94379.25
2022-11-06T18:51:34.992Z,94371.81
2022-11-06T18:54:06.623Z,94374.41
2022-11-06T18:56:36.296Z,94387.81
2022-11-06T18:59:06.228Z,94367.59
2022-11-06T19:01:34.849Z,94365.84
2022-11-06T19:04:03.853Z,94371.88
2022-11-06T19:06:31.497Z,94395.00
2022-11-06T19:08:58.998Z,94401.56
2022-11-06T19:11:25.901Z,94397.19
2022-11-06T19:13:52.701Z,94404.56
2022-11-06T19:16:20.060Z,94399.88
2022-11-06T19:21:30.080Z,94422.25
2022-11-06T19:24:04.721Z,94416.50
2022-11-06T19:26:34.222Z,94411.41
2022-11-06T19:29:01.530Z,94417.56
2022-11-06T19:31:29.836Z,94426.41
2022-11-06T19:34:01.574Z,94416.16
2022-11-06T19:36:29.654Z,94433.31
2022-11-06T19:38:58.590Z,94427.34
2022-11-06T19:41:27.235Z,94452.47
2022-11-06T19:43:54.283Z,94443.09
2022-11-06T19:46:26.151Z,94427.16
2022-11-06T19:48:56.819Z,94436.50
2022-11-06T19:51:24.993Z,94447.63
2022-11-06T19:53:53.666Z,94437.47
2022-11-06T19:56:21.461Z,94437.47
2022-11-06T19:58:50.228Z,94454.22
2022-11-06T20:01:17.249Z,94446.88
2022-11-06T20:03:44.239Z,94459.28
2022-11-06T20:06:12.310Z,94482.50
2022-11-06T20:08:39.664Z,94484.22
2022-11-06T20:11:12.384Z,94485.09
2022-11-06T20:13:40.915Z,94483.03
2022-11-06T20:16:11.368Z,94465.78
2022-11-06T20:18:38.387Z,94471.69
2022-11-06T20:21:09.237Z,94487.44
2022-11-06T20:23:37.369Z,94465.88
2022-11-06T20:26:06.093Z,94456.50
2022-11-06T20:28:33.822Z,94469.75
2022-11-06T20:31:08.631Z,94489.16
2022-11-06T20:33:36.552Z,94495.03
2022-11-06T20:36:25.661Z,94493.69
2022-11-06T20:38:55.096Z,94517.47
2022-11-06T20:41:22.779Z,94500.06
2022-11-06T20:43:50.825Z,94496.16
2022-11-06T20:46:19.473Z,94508.78
2022-11-06T20:48:46.688Z,94501.94
2022-11-06T20:51:23.406Z,94510.84
2022-11-06T20:53:51.033Z,94526.53
2022-11-06T20:56:20.791Z,94509.91
2022-11-06T20:58:48.400Z,94510.44
2022-11-06T21:01:20.015Z,94503.88
2022-11-06T21:03:49.666Z,94523.59
2022-11-06T21:06:18.856Z,94525.00
2022-11-06T21:08:46.630Z,94515.34
2022-11-06T21:11:20.545Z,94517.56
2022-11-06T21:13:53.512Z,94519.19
2022-11-06T21:16:25.485Z,94523.72
2022-11-06T21:18:53.420Z,94501.72
2022-11-06T21:21:25.500Z,94524.84
2022-11-06T21:23:53.841Z,94511.94
2022-11-06T21:26:28.400Z,94524.72
2022-11-06T21:28:56.287Z,94520.09
2022-11-06T21:31:27.346Z,94499.44
2022-11-06T21:33:57.159Z,94531.41
2022-11-06T21:36:27.916Z,94534.75
2022-11-06T21:38:59.653Z,94520.34
2022-11-06T21:41:28.994Z,94528.13
2022-11-06T21:43:57.018Z,94536.88
2022-11-06T21:46:24.113Z,94537.72
2022-11-06T21:48:52.102Z,94536.19
2022-11-06T21:51:23.352Z,94521.56
2022-11-06T21:54:09.477Z,94531.13
2022-11-06T21:56:38.356Z,94534.56
2022-11-06T21:59:12.243Z,94511.25
2022-11-06T22:01:40.444Z,94515.50
2022-11-06T22:04:08.558Z,94518.66
2022-11-06T22:06:36.162Z,94518.34
2022-11-06T22:09:03.905Z,94518.66
2022-11-06T22:11:37.401Z,94513.03
2022-11-06T22:14:16.724Z,94525.50
2022-11-06T22:16:47.072Z,94519.38
2022-11-06T22:19:16.241Z,94513.31
2022-11-06T22:21:43.521Z,94526.25
2022-11-06T22:24:13.146Z,94530.66
2022-11-06T22:26:40.243Z,94527.66
2022-11-06T22:29:11.560Z,94540.13
2022-11-06T22:31:38.415Z,94504.25
2022-11-06T22:34:05.328Z,94535.13
2022-11-06T22:36:32.460Z,94524.13
2022-11-06T22:39:00.815Z,94540.47
2022-11-06T22:41:27.560Z,94535.97
2022-11-06T22:43:59.232Z,94535.97
2022-11-06T22:46:26.921Z,94546.28
2022-11-06T22:48:54.256Z,94544.13
2022-11-06T22:51:27.986Z,94533.56
2022-11-06T22:53:55.548Z,94554.41
2022-11-06T22:56:24.284Z,94542.38
2022-11-06T22:59:04.027Z,94550.19
2022-11-06T23:01:37.217Z,94555.03
2022-11-06T23:04:10.616Z,94553.41
2022-11-06T23:06:37.446Z,94548.19
2022-11-06T23:09:04.258Z,94560.56
2022-11-06T23:11:31.102Z,94568.75
2022-11-06T23:14:05.972Z,94571.00
2022-11-06T23:16:52.602Z,94575.34
2022-11-06T23:19:20.690Z,94575.34
2022-11-06T23:21:47.780Z,94573.72
2022-11-06T23:24:14.631Z,94571.38
2022-11-06T23:26:44.119Z,94560.56
2022-11-06T23:29:11.183Z,94583.56
2022-11-06T23:31:37.929Z,94558.34
2022-11-06T23:34:04.850Z,94555.22
2022-11-06T23:36:31.598Z,94575.34
2022-11-06T23:38:58.428Z,94542.41
2022-11-06T23:41:43.130Z,94575.75
2022-11-06T23:44:29.846Z,94584.53
2022-11-06T23:46:57.917Z,94584.22
2022-11-06T23:49:24.747Z,94598.91
2022-11-06T23:51:51.610Z,94578.63
2022-11-06T23:54:18.559Z,94579.72
2022-11-06T23:56:45.286Z,94580.25
2022-11-06T23:59:12.971Z,94579.94
